Time;durP1;ratioP1;P1;durP2;ratioP2;P2;SDS_P1;SDS_P2;PMS_P1;PMS_P2;Temp;Humidity;BMP_temperature;BMP_pressure;BME280_temperature;BME280_humidity;BME280_pressure;Samples;Min_cycle;Max_cycle;Signal;HPM_P1;HPM_P2
2022/12/20 00:02:45;;;;;;;3.92;3.10;;;;;;;-11.58;70.00;100178.34;4843493;28;20046;-64
2022/12/20 00:05:42;;;;;;;7.18;3.47;;;;;;;-11.41;69.54;100176.97;4902494;28;20054;-63
2022/12/20 00:08:27;;;;;;;6.57;3.72;;;;;;;-11.25;69.25;100175.53;4893614;28;20111;-64
2022/12/20 00:11:13;;;;;;;5.50;2.80;;;;;;;-11.09;68.70;100178.31;4897692;28;20318;-62
2022/12/20 00:14:08;;;;;;;3.20;2.63;;;;;;;-10.95;68.33;100170.03;4863274;28;20037;-64
2022/12/20 00:17:10;;;;;;;3.53;2.47;;;;;;;-10.83;67.75;100159.91;4893069;28;20081;-64
2022/12/20 00:20:08;;;;;;;3.67;2.70;;;;;;;-10.80;67.39;100169.31;4877748;28;20171;-63
2022/12/20 00:22:52;;;;;;;4.45;2.65;;;;;;;-10.73;67.08;100171.47;4894576;28;20053;-63
2022/12/20 00:25:38;;;;;;;7.53;2.90;;;;;;;-10.64;67.02;100172.06;4829393;28;20056;-62
2022/12/20 00:28:31;;;;;;;6.05;2.47;;;;;;;-10.55;66.58;100162.59;4874108;28;20033;-63
2022/12/20 00:31:18;;;;;;;7.00;2.88;;;;;;;-10.48;66.01;100169.81;4888761;28;20064;-62
2022/12/20 00:34:03;;;;;;;5.70;2.50;;;;;;;-10.69;65.92;100112.84;4846009;28;20072;-63
2022/12/20 00:36:47;;;;;;;8.23;3.28;;;;;;;-10.25;65.65;100158.63;4907736;28;20056;-63
2022/12/20 00:39:33;;;;;;;8.85;3.35;;;;;;;-10.15;64.78;100170.19;4893953;28;20356;-63
2022/12/20 00:42:19;;;;;;;6.40;3.13;;;;;;;-10.01;64.47;100158.41;4887934;28;20050;-64
2022/12/20 00:45:05;;;;;;;4.40;2.30;;;;;;;-9.98;64.17;100163.69;4854882;28;20053;-63
2022/12/20 00:47:41;;;;;;;3.90;2.60;;;;;;;-9.89;64.31;100155.81;4902322;28;20053;-64
2022/12/20 00:50:32;;;;;;;9.65;2.60;;;;;;;-9.80;63.51;100146.28;4850785;28;21225;-66
2022/12/20 00:53:23;;;;;;;2.85;2.40;;;;;;;-9.94;63.44;100104.09;4838925;28;20041;-64
2022/12/20 00:56:03;;;;;;;3.58;2.28;;;;;;;-9.56;63.15;100145.28;4914787;28;20084;-63
2022/12/20 00:58:50;;;;;;;7.20;2.20;;;;;;;-9.38;62.96;100140.47;4866392;28;20053;-64
2022/12/20 01:01:33;;;;;;;5.93;3.10;;;;;;;-9.57;63.18;100077.75;4904028;28;20083;-63
2022/12/20 01:04:30;;;;;;;9.43;4.50;;;;;;;-9.13;62.19;100130.16;4876536;28;20045;-63
2022/12/20 01:10:39;;;;;;;4.10;2.38;;;;;;;-8.77;61.10;100097.63;4901019;28;20049;-63
2022/12/20 01:13:37;;;;;;;12.32;4.80;;;;;;;-8.36;60.54;100121.91;4885464;28;20057;-64
2022/12/20 01:16:34;;;;;;;;;;;;;;;-7.95;60.46;100114.88;4882710;28;20044;-65
2022/12/20 01:19:19;;;;;;;9.77;4.32;;;;;;;-7.81;59.78;100124.97;4903812;28;19936;-66
2022/12/20 01:22:09;;;;;;;9.07;4.25;;;;;;;-7.77;58.86;100115.00;4866849;28;20298;-64
2022/12/20 01:24:48;;;;;;;13.00;4.63;;;;;;;-7.89;58.26;100089.81;4846401;28;20203;-64
2022/12/20 01:27:29;;;;;;;8.75;4.72;;;;;;;-8.03;57.66;100071.34;4777892;28;20373;-63
2022/12/20 01:30:23;;;;;;;6.53;3.30;;;;;;;-7.75;57.52;100108.34;4852615;28;20053;-65
2022/12/20 01:36:09;;;;;;;5.07;2.92;;;;;;;-7.77;57.46;100104.84;4871927;28;20055;-64
2022/12/20 01:38:58;;;;;;;6.20;2.97;;;;;;;-7.86;57.87;100101.03;4892652;28;20063;-64
2022/12/20 01:41:44;;;;;;;7.68;2.80;;;;;;;-8.02;57.23;100090.81;4896430;28;20074;-63
2022/12/20 01:45:11;;;;;;;6.78;2.90;;;;;;;-8.05;57.14;100093.19;4898668;28;20095;-64
2022/12/20 01:47:46;;;;;;;5.18;2.38;;;;;;;-7.86;57.49;100095.94;4899238;28;20145;-63
2022/12/20 01:50:26;;;;;;;5.85;2.83;;;;;;;-7.73;57.53;100096.63;4856578;28;20094;-63
2022/12/20 01:53:20;;;;;;;8.57;3.40;;;;;;;-7.68;57.21;100095.19;4905591;28;20094;-63
2022/12/20 01:55:59;;;;;;;5.15;2.80;;;;;;;-7.79;57.38;100081.91;4916923;28;20107;-63
2022/12/20 02:01:44;;;;;;;4.88;2.55;;;;;;;-7.78;58.24;100072.66;4889372;28;20068;-63
2022/12/20 02:04:46;;;;;;;3.92;2.40;;;;;;;-7.81;57.88;100065.78;4906351;28;20064;-64
2022/12/20 02:07:37;;;;;;;6.72;2.55;;;;;;;-7.81;57.21;100064.09;4881859;28;20037;-65
2022/12/20 02:10:16;;;;;;;5.75;2.70;;;;;;;-7.74;57.08;100065.28;4876812;28;20060;-63
2022/12/20 02:13:16;;;;;;;7.00;2.80;;;;;;;-7.61;57.14;100056.69;4857722;28;20064;-64
2022/12/20 02:16:09;;;;;;;3.55;2.55;;;;;;;-7.41;57.64;100050.97;4906202;28;20043;-66
2022/12/20 02:19:12;;;;;;;5.07;3.03;;;;;;;-7.41;57.32;100050.97;4882236;28;20995;-65
2022/12/20 02:22:05;;;;;;;5.93;2.80;;;;;;;-7.45;58.20;100049.06;4882241;28;20052;-66
2022/12/20 02:25:18;;;;;;;5.70;2.40;;;;;;;-7.50;58.79;100050.47;4864251;28;20087;-66
2022/12/20 02:28:14;;;;;;;5.43;2.70;;;;;;;-7.65;58.22;100054.75;4877588;28;20086;-66
2022/12/20 02:31:08;;;;;;;6.88;2.45;;;;;;;-7.56;58.77;100040.03;4870400;28;20033;-66
2022/12/20 02:33:54;;;;;;;11.98;2.78;;;;;;;-7.48;59.20;100038.75;4886283;28;20072;-66
2022/12/20 02:36:36;;;;;;;6.38;2.33;;;;;;;-7.32;59.44;100040.41;4902521;28;20049;-66
2022/12/20 02:39:18;;;;;;;;;;;;;;;-7.17;59.21;100040.31;4915267;28;20042;-67
2022/12/20 02:42:13;;;;;;;6.45;2.28;;;;;;;-6.96;59.80;100046.47;4896819;28;19978;-67
2022/12/20 02:45:19;;;;;;;5.03;2.95;;;;;;;-6.84;58.60;100035.16;4901738;28;20358;-66
2022/12/20 02:48:12;;;;;;;5.10;2.33;;;;;;;-7.06;58.46;100029.03;4886795;28;20060;-65
2022/12/20 02:51:05;;;;;;;6.65;2.55;;;;;;;-7.55;58.46;99974.91;4904340;28;20050;-66
2022/12/20 02:54:17;;;;;;;7.22;2.60;;;;;;;-7.16;58.78;100031.91;4900971;28;20056;-66
2022/12/20 02:56:55;;;;;;;3.83;2.60;;;;;;;-6.97;59.00;100029.47;4885581;28;20477;-66
2022/12/20 03:00:00;;;;;;;5.60;2.40;;;;;;;-7.02;58.38;100010.59;4888902;28;20292;-66
2022/12/20 03:06:02;;;;;;;4.97;2.40;;;;;;;-7.21;57.23;100002.88;4905793;28;20318;-66
2022/12/20 03:08:45;;;;;;;9.25;2.58;;;;;;;-7.26;57.32;100009.38;4910558;28;20057;-66
2022/12/20 03:11:31;;;;;;;7.75;3.58;;;;;;;-7.33;58.50;100010.75;4874906;28;20082;-65
2022/12/20 03:14:18;;;;;;;8.98;2.70;;;;;;;-7.15;60.05;100013.34;4821148;28;20318;-66
2022/12/20 03:16:57;;;;;;;7.18;2.60;;;;;;;-7.20;58.97;99999.53;4909885;28;20048;-66
2022/12/20 03:19:56;;;;;;;6.28;2.72;;;;;;;-7.24;58.92;99992.56;4865670;28;20086;-66
2022/12/20 03:22:45;;;;;;;6.45;2.58;;;;;;;-7.18;58.53;99997.97;4903126;28;20045;-65
2022/12/20 03:25:46;;;;;;;5.25;2.75;;;;;;;-7.31;58.26;99995.56;4873464;28;20114;-66
2022/12/20 03:28:58;;;;;;;7.25;3.47;;;;;;;-7.38;58.47;100002.91;4917701;28;20051;-66
2022/12/20 03:31:45;;;;;;;12.35;4.72;;;;;;;-7.50;58.33;99998.88;4881948;28;20065;-66
2022/12/20 03:34:30;;;;;;;5.88;3.20;;;;;;;-7.76;57.90;99989.88;4897233;28;20382;-66
2022/12/20 03:37:25;;;;;;;11.93;4.57;;;;;;;-7.58;58.84;99995.94;4888191;28;20070;-66
2022/12/20 03:40:17;;;;;;;7.20;3.30;;;;;;;-7.47;57.82;99993.94;4880079;28;20087;-66
2022/12/20 03:43:01;;;;;;;6.80;3.10;;;;;;;-7.49;57.63;99991.31;4863406;28;20041;-66
2022/12/20 03:45:43;;;;;;;8.52;3.15;;;;;;;-7.43;58.13;99986.56;4856909;28;20060;-67
2022/12/20 03:51:10;;;;;;;5.07;2.70;;;;;;;-7.09;57.23;99988.22;4897413;28;20053;-66
2022/12/20 03:53:56;;;;;;;8.02;2.90;;;;;;;-7.06;57.12;99978.25;4892239;28;20105;-66
2022/12/20 03:57:05;;;;;;;27.27;9.18;;;;;;;-7.25;56.89;99979.00;4881856;28;20102;-66
2022/12/20 04:00:07;;;;;;;10.77;3.60;;;;;;;-7.11;57.64;99984.78;4909573;28;20045;-66
2022/12/20 04:03:04;;;;;;;14.82;4.57;;;;;;;-7.02;58.04;99985.22;4846002;28;20049;-67
2022/12/20 04:05:57;;;;;;;13.35;4.75;;;;;;;-6.98;58.11;99982.03;4912787;28;20076;-65
2022/12/20 04:08:35;;;;;;;7.70;3.85;;;;;;;-7.00;57.97;99991.25;4873693;28;20066;-65
2022/12/20 04:11:24;;;;;;;9.35;3.42;;;;;;;-6.95;57.93;99982.19;4912529;28;20045;-65
2022/12/20 04:14:08;;;;;;;6.32;2.97;;;;;;;-6.85;57.90;99982.63;4906877;28;20075;-65
2022/12/20 04:16:50;;;;;;;6.28;3.22;;;;;;;-6.95;58.06;99987.25;4929953;28;20037;-66
2022/12/20 04:19:42;;;;;;;4.95;2.92;;;;;;;-7.00;58.52;99963.31;4885093;28;20045;-65
2022/12/20 04:22:36;;;;;;;8.55;2.97;;;;;;;-7.05;58.77;99985.06;4895095;28;20040;-65
2022/12/20 04:25:15;;;;;;;9.93;3.08;;;;;;;-7.09;58.36;99982.28;4919081;28;20129;-65
2022/12/20 04:27:54;;;;;;;5.95;2.50;;;;;;;-7.14;58.22;99976.13;4918223;28;20037;-66
2022/12/20 04:30:52;;;;;;;8.10;3.35;;;;;;;-7.01;58.23;99975.94;4915387;28;20044;-63
2022/12/20 04:33:42;;;;;;;3.55;2.70;;;;;;;-7.01;58.10;99981.88;4881566;28;20050;-65
2022/12/20 04:36:32;;;;;;;7.00;2.58;;;;;;;-6.83;58.31;99981.03;4926971;28;20064;-63
2022/12/20 04:42:11;;;;;;;8.45;2.80;;;;;;;-7.00;57.87;99978.53;4870364;28;20559;-63
2022/12/20 04:47:45;;;;;;;12.02;2.67;;;;;;;-6.87;57.50;99971.53;4880551;28;20040;-65
2022/12/20 04:50:35;;;;;;;7.05;2.50;;;;;;;-6.93;56.91;99986.47;4929223;28;20090;-65
2022/12/20 04:56:21;;;;;;;4.75;2.28;;;;;;;-6.97;56.60;99993.91;4912101;28;20102;-65
2022/12/20 04:59:19;;;;;;;5.13;2.50;;;;;;;-7.02;58.00;99995.38;4903057;28;20099;-65
2022/12/20 05:01:59;;;;;;;8.82;2.78;;;;;;;-6.94;57.22;99998.28;4882401;28;20148;-64
2022/12/20 05:11:44;;;;;;;4.20;2.20;;;;;;;-7.21;57.02;100013.03;4905824;28;20045;-65
2022/12/20 05:14:23;;;;;;;4.07;2.22;;;;;;;-7.28;56.89;100011.84;4919489;28;20057;-65
2022/12/20 05:17:02;;;;;;;10.35;2.30;;;;;;;-7.28;57.50;100016.06;4911266;28;20048;-64
2022/12/20 05:19:48;;;;;;;3.10;1.90;;;;;;;-7.28;57.68;100018.59;4888203;28;20383;-65
2022/12/20 05:29:04;;;;;;;4.90;2.80;;;;;;;-7.69;57.47;100037.63;4895329;28;20096;-63
2022/12/20 05:31:58;;;;;;;6.60;3.30;;;;;;;-7.79;58.04;100032.84;4882826;28;20044;-64
2022/12/20 05:34:48;;;;;;;5.07;2.78;;;;;;;-7.88;57.91;100033.25;4807045;28;20109;-64
2022/12/20 05:40:28;;;;;;;5.28;2.38;;;;;;;-8.07;58.24;100033.91;4848605;28;20474;-63
2022/12/20 05:43:05;;;;;;;6.18;2.63;;;;;;;-8.12;58.31;100035.34;4864134;28;20136;-63
2022/12/20 05:45:53;;;;;;;5.10;2.20;;;;;;;-8.29;58.39;100022.59;4896589;28;20364;-63
2022/12/20 05:48:49;;;;;;;4.82;2.35;;;;;;;-8.32;58.00;100032.59;4885744;28;20082;-63
2022/12/20 05:51:31;;;;;;;4.70;2.00;;;;;;;-8.38;57.91;100026.31;4885321;28;20045;-65
2022/12/20 05:57:18;;;;;;;6.55;1.92;;;;;;;-8.64;58.06;100024.88;4892723;28;20149;-65
2022/12/20 06:00:07;;;;;;;4.18;2.05;;;;;;;-8.81;57.84;100019.78;4892862;28;20049;-64
2022/12/20 06:02:56;;;;;;;5.53;2.00;;;;;;;-8.86;58.27;100031.28;4877374;28;20073;-64
2022/12/20 06:05:40;;;;;;;3.63;2.45;;;;;;;-8.84;58.48;100034.75;4917922;28;20053;-63
2022/12/20 06:08:25;;;;;;;4.93;2.40;;;;;;;-8.94;58.58;100038.44;4916574;28;20123;-65
2022/12/20 06:11:05;;;;;;;4.35;2.20;;;;;;;-9.05;58.77;100039.47;4905050;28;20056;-65
2022/12/20 06:17:01;;;;;;;7.10;3.65;;;;;;;-9.20;59.52;100029.34;4892874;28;20037;-63
2022/12/20 06:19:49;;;;;;;6.50;2.67;;;;;;;-9.32;59.55;100020.16;4920153;28;20371;-65
2022/12/20 06:22:29;;;;;;;4.55;2.20;;;;;;;-9.31;59.92;100030.34;4897632;28;20052;-64
2022/12/20 06:25:16;;;;;;;3.85;2.35;;;;;;;-9.39;59.67;100037.50;4904211;28;20033;-65
2022/12/20 06:28:11;;;;;;;4.15;2.08;;;;;;;-9.50;60.06;100030.06;4918844;28;20061;-64
2022/12/20 06:31:13;;;;;;;3.00;2.20;;;;;;;-9.47;60.45;100043.75;4882633;28;20354;-65
2022/12/20 06:33:49;;;;;;;5.78;2.33;;;;;;;-9.48;60.94;100038.59;4877327;28;20049;-66
2022/12/20 06:36:39;;;;;;;13.98;5.00;;;;;;;-9.51;61.28;100043.47;4895756;28;20074;-64
2022/12/20 06:39:37;;;;;;;11.20;3.97;;;;;;;-9.57;61.41;100034.75;4818000;28;20045;-64
2022/12/20 06:42:32;;;;;;;4.28;1.85;;;;;;;-9.57;61.77;100042.34;4879933;28;20056;-64
2022/12/20 06:45:19;;;;;;;6.57;2.50;;;;;;;-9.52;61.77;100035.03;4910379;28;20040;-66
2022/12/20 06:47:59;;;;;;;10.95;4.32;;;;;;;-9.50;61.67;100045.25;4919528;28;20588;-66
2022/12/20 06:50:42;;;;;;;4.38;2.53;;;;;;;-9.74;62.12;99992.41;4903141;28;20050;-64
2022/12/20 06:53:37;;;;;;;165.38;42.33;;;;;;;-9.34;62.78;100047.88;4871101;28;20376;-65
2022/12/20 06:59:29;;;;;;;68.63;22.33;;;;;;;-9.29;62.73;100049.03;4910380;28;20134;-64
2022/12/20 07:02:12;;;;;;;15.77;4.45;;;;;;;-9.29;63.19;100043.97;4897044;28;20059;-64
2022/12/20 07:07:52;;;;;;;15.20;5.78;;;;;;;-9.30;62.43;100048.97;4859433;28;20052;-65
2022/12/20 07:10:41;;;;;;;23.45;8.07;;;;;;;-9.33;62.54;100052.19;4946917;28;20049;-64
2022/12/20 07:19:26;;;;;;;22.50;8.30;;;;;;;-9.41;64.32;100046.69;4852881;28;20053;-63
2022/12/20 07:22:16;;;;;;;14.82;5.15;;;;;;;-9.42;64.10;100036.44;4857094;28;20282;-64
2022/12/20 07:24:54;;;;;;;18.67;7.18;;;;;;;-9.57;64.33;100041.47;4917081;28;20107;-63
2022/12/20 07:27:47;;;;;;;11.57;5.10;;;;;;;-9.77;64.82;100017.50;4896898;28;20246;-63
2022/12/20 07:30:30;;;;;;;8.93;3.72;;;;;;;-9.39;65.19;100041.69;4867792;28;20056;-64
2022/12/20 07:33:25;;;;;;;8.88;3.33;;;;;;;-9.52;65.43;100034.16;4884421;28;20046;-64
2022/12/20 07:36:45;;;;;;;7.38;3.60;;;;;;;-9.47;65.76;100045.44;4865859;28;20048;-64
2022/12/20 07:43:10;;;;;;;7.28;2.95;;;;;;;-9.43;66.27;100039.78;4918697;28;20053;-64
2022/12/20 07:45:59;;;;;;;4.07;2.33;;;;;;;-9.43;66.04;100055.81;4937977;28;20805;-65
2022/12/20 07:48:35;;;;;;;5.38;2.58;;;;;;;-9.41;65.99;100058.44;4933331;28;20585;-64
2022/12/20 07:51:19;;;;;;;6.07;2.33;;;;;;;-9.69;66.17;100016.31;4912476;28;20750;-65
2022/12/20 07:54:12;;;;;;;6.15;2.47;;;;;;;-9.40;66.39;100065.25;4841719;28;20110;-64
2022/12/20 07:57:07;;;;;;;10.35;5.80;;;;;;;-9.37;66.83;100065.44;4888127;28;20040;-64
2022/12/20 08:00:11;;;;;;;11.75;3.33;;;;;;;-9.38;67.25;100068.75;4876087;28;20065;-64
2022/12/20 08:03:09;;;;;;;6.15;3.25;;;;;;;-9.41;67.04;100066.91;4929666;28;20345;-63
2022/12/20 08:06:02;;;;;;;5.43;2.85;;;;;;;-9.44;67.03;100073.44;4916092;28;20724;-64
2022/12/20 08:09:02;;;;;;;6.93;2.83;;;;;;;-9.66;66.43;100067.09;4881153;28;20072;-64
2022/12/20 08:12:03;;;;;;;8.18;3.67;;;;;;;-9.70;66.31;100079.47;4896744;28;20334;-64
2022/12/20 08:14:51;;;;;;;5.38;2.47;;;;;;;-9.66;65.79;100082.28;4874710;28;20041;-63
2022/12/20 08:17:34;;;;;;;4.30;2.97;;;;;;;-9.78;65.05;100071.41;4906433;28;20107;-63
2022/12/20 08:20:26;;;;;;;4.28;2.58;;;;;;;-9.75;64.84;100090.94;4912512;28;20126;-63
2022/12/20 08:23:10;;;;;;;7.57;2.80;;;;;;;-10.03;64.68;100044.63;4930432;28;20049;-64
2022/12/20 08:28:46;;;;;;;5.38;2.65;;;;;;;-9.82;64.49;100085.50;4895531;28;20059;-64
2022/12/20 08:31:33;;;;;;;8.23;3.95;;;;;;;-9.92;64.52;100072.19;4899490;28;20053;-65
2022/12/20 08:34:52;;;;;;;10.27;3.67;;;;;;;-10.11;64.20;100076.09;4858907;28;20050;-65
2022/12/20 08:37:31;;;;;;;11.55;4.45;;;;;;;-10.07;64.73;100067.94;4894993;28;20049;-64
2022/12/20 08:40:17;;;;;;;7.57;4.35;;;;;;;-9.99;64.51;100070.94;4918342;28;20056;-63
2022/12/20 08:42:53;;;;;;;23.92;5.63;;;;;;;-9.98;64.61;100083.69;4908827;28;20313;-64
2022/12/20 08:45:42;;;;;;;18.67;5.93;;;;;;;-9.99;64.87;100076.84;4908234;28;20053;-64
2022/12/20 08:48:39;;;;;;;24.25;8.07;;;;;;;-10.11;64.56;100086.19;4857683;28;20049;-64
2022/12/20 08:51:28;;;;;;;13.88;6.68;;;;;;;-10.32;64.41;100079.84;4857691;28;20382;-66
2022/12/20 08:54:13;;;;;;;35.83;10.10;;;;;;;-10.61;64.66;100076.31;4858318;28;20050;-64
2022/12/20 08:56:47;;;;;;;26.60;8.40;;;;;;;-10.50;65.35;100090.53;4862236;28;20045;-64
2022/12/20 08:59:32;;;;;;;30.83;10.65;;;;;;;-10.39;65.58;100087.81;4858363;28;20060;-64
2022/12/20 09:05:08;;;;;;;14.15;6.22;;;;;;;-10.32;66.03;100084.91;4868442;28;20470;-64
2022/12/20 09:08:00;;;;;;;17.20;7.30;;;;;;;-10.30;66.28;100083.34;4864567;28;20527;-63
2022/12/20 09:10:37;;;;;;;18.48;7.60;;;;;;;-10.60;66.82;100052.84;4845912;28;20042;-64
2022/12/20 09:13:13;;;;;;;45.95;13.15;;;;;;;-10.51;66.64;100093.81;4854897;28;20043;-64
2022/12/20 09:15:51;;;;;;;106.80;26.50;;;;;;;-10.70;66.53;100101.00;4876911;28;20062;-63
2022/12/20 09:18:29;;;;;;;82.15;21.65;;;;;;;-10.79;67.09;100100.38;4849761;28;20382;-63
2022/12/20 09:21:17;;;;;;;67.50;18.90;;;;;;;-10.92;67.76;100089.47;4865575;28;20145;-64
2022/12/20 09:24:08;;;;;;;110.68;33.78;;;;;;;-11.07;68.19;100106.13;4884390;28;20061;-64
2022/12/20 09:26:44;;;;;;;106.60;35.22;;;;;;;-11.23;68.48;100095.78;4834564;28;20212;-63
2022/12/20 09:29:31;;;;;;;83.47;31.70;;;;;;;-11.26;68.62;100105.66;4882059;28;20069;-64
2022/12/20 09:32:08;;;;;;;32.90;14.25;;;;;;;-11.50;69.36;100100.72;4854391;28;20050;-64
2022/12/20 09:34:56;;;;;;;45.20;16.95;;;;;;;-11.57;69.88;100108.63;4848126;28;20061;-65
2022/12/20 09:37:46;;;;;;;25.52;10.60;;;;;;;-11.55;70.25;100105.44;4861646;28;20049;-64
2022/12/20 09:40:53;;;;;;;31.38;11.45;;;;;;;-11.41;70.83;100101.31;4873893;28;20053;-62
2022/12/20 09:43:51;;;;;;;12.70;4.72;;;;;;;-11.40;71.01;100093.00;4846123;28;20049;-63
2022/12/20 09:49:20;;;;;;;11.38;4.97;;;;;;;-11.09;71.44;100112.72;4908066;28;20055;-64
2022/12/20 09:52:39;;;;;;;17.95;5.25;;;;;;;-11.21;71.36;100079.09;4916749;28;20068;-62
2022/12/20 09:55:42;;;;;;;24.25;7.65;;;;;;;-11.18;70.63;100104.53;4923406;28;20054;-64
2022/12/20 09:58:39;;;;;;;38.85;12.52;;;;;;;-11.37;70.88;100068.00;4903730;28;20041;-64
2022/12/20 10:04:33;;;;;;;14.55;6.18;;;;;;;-11.27;71.16;100098.88;4930986;28;20404;-64
2022/12/20 10:07:20;;;;;;;25.15;7.25;;;;;;;-11.29;71.39;100081.97;4929677;28;20036;-63
2022/12/20 10:10:19;;;;;;;16.58;6.22;;;;;;;-11.18;71.21;100114.63;4892751;28;20105;-64
2022/12/20 10:13:12;;;;;;;24.10;8.57;;;;;;;-10.99;72.02;100102.47;4905376;28;20152;-63
2022/12/20 10:16:07;;;;;;;40.45;13.05;;;;;;;-11.00;71.70;100095.69;4844328;28;20085;-65
2022/12/20 10:25:21;;;;;;;43.53;14.52;;;;;;;-10.60;71.77;100083.13;4797209;28;20045;-65
2022/12/20 10:28:25;;;;;;;36.88;13.48;;;;;;;-10.49;71.34;100097.31;4910253;28;20036;-65
2022/12/20 10:34:14;;;;;;;27.35;10.10;;;;;;;-10.74;70.39;100099.03;4899816;28;20245;-64
2022/12/20 10:36:49;;;;;;;28.02;9.93;;;;;;;-10.81;70.39;100091.84;4914237;28;20046;-64
2022/12/20 10:39:45;;;;;;;21.13;7.72;;;;;;;-11.64;70.71;99951.03;4905384;28;20109;-65
2022/12/20 10:42:44;;;;;;;14.07;5.93;;;;;;;-10.92;71.04;100084.44;4912822;28;20082;-62
2022/12/20 10:45:52;;;;;;;13.80;4.75;;;;;;;-10.76;72.15;100095.53;4896047;28;20117;-64
2022/12/20 10:48:46;;;;;;;10.88;3.88;;;;;;;-10.91;71.82;100062.59;4911456;28;20078;-65
2022/12/20 10:51:36;;;;;;;9.82;4.63;;;;;;;-10.91;71.90;100086.16;4926553;28;20144;-66
2022/12/20 10:57:45;;;;;;;55.03;18.83;;;;;;;-10.86;72.34;100079.81;4877591;28;20053;-65
2022/12/20 11:00:33;;;;;;;32.38;12.60;;;;;;;-10.94;72.67;100075.88;4875065;28;20045;-64
2022/12/20 11:03:59;;;;;;;33.92;10.88;;;;;;;-11.44;72.44;99990.19;4869742;28;20125;-63
2022/12/20 11:18:26;;;;;;;16.20;6.60;;;;;;;-11.34;74.11;100074.88;4893096;28;20056;-63
2022/12/20 11:21:36;;;;;;;11.05;5.07;;;;;;;-11.25;74.09;100052.81;4918246;28;20048;-64
2022/12/20 11:24:38;;;;;;;;;;;;;;;;;;;;;
2022/12/20 11:27:56;;;;;;;101.20;35.22;;;;;;;-11.20;73.42;100056.53;4895804;28;20067;-64
2022/12/20 11:31:17;;;;;;;106.20;39.22;;;;;;;-11.30;73.81;100049.97;4902705;28;20063;-66
2022/12/20 11:38:01;;;;;;;28.92;12.50;;;;;;;-11.35;74.52;100061.41;4864426;28;20054;-64
2022/12/20 11:41:10;;;;;;;20.00;7.97;;;;;;;-11.23;74.70;100055.41;4860885;28;20278;-63
2022/12/20 11:44:11;;;;;;;24.75;8.02;;;;;;;-11.08;75.10;100058.97;4861774;28;20096;-63
2022/12/20 11:47:33;;;;;;;9.90;4.25;;;;;;;-11.05;75.02;100066.75;4883883;28;20121;-65
2022/12/20 11:53:43;;;;;;;9.55;3.70;;;;;;;-11.19;74.72;100052.34;4868060;28;20117;-64
2022/12/20 11:56:55;;;;;;;8.15;3.92;;;;;;;-11.27;75.04;100050.97;4860554;28;20072;-63
2022/12/20 11:59:57;;;;;;;8.38;3.45;;;;;;;-11.27;75.73;100018.19;4828656;28;21320;-65
2022/12/20 12:09:15;;;;;;;69.70;21.83;;;;;;;-10.98;75.64;100023.47;4885684;28;20067;-63
2022/12/20 12:12:37;;;;;;;37.42;14.18;;;;;;;-10.83;76.05;100017.66;4904821;28;20890;-64
2022/12/20 12:15:50;;;;;;;16.40;7.10;;;;;;;-10.77;75.59;100018.94;4934306;28;20045;-64
2022/12/20 12:18:51;;;;;;;14.02;6.82;;;;;;;-10.46;76.54;100019.25;4895756;28;20076;-64
2022/12/20 12:25:04;;;;;;;6.50;3.90;;;;;;;-10.14;75.94;100015.25;4891198;28;20051;-64
2022/12/20 12:27:45;;;;;;;9.30;3.63;;;;;;;-10.08;75.82;100000.50;4901719;28;20047;-65
2022/12/20 12:30:37;;;;;;;9.30;4.45;;;;;;;-9.96;75.84;99999.47;4902680;28;20062;-65
2022/12/20 12:34:06;;;;;;;6.63;3.47;;;;;;;-9.84;75.70;99995.16;4905635;28;20045;-64
2022/12/20 12:37:48;;;;;;;7.05;3.78;;;;;;;-9.83;74.83;99981.78;4901694;28;20047;-64
2022/12/20 12:41:03;;;;;;;6.50;3.53;;;;;;;-9.71;74.29;99992.59;4915784;28;20333;-62
2022/12/20 12:44:07;;;;;;;8.05;4.20;;;;;;;-9.67;74.13;99989.47;4821835;28;20051;-65
2022/12/20 12:50:40;;;;;;;9.48;2.90;;;;;;;-9.44;74.03;99982.34;4857071;28;20064;-65
2022/12/20 12:58:04;;;;;;;9.20;3.20;;;;;;;-9.29;73.63;99973.13;4865775;28;20042;-63
2022/12/20 13:01:48;;;;;;;9.13;3.03;;;;;;;-9.32;73.54;99972.97;4868298;28;20042;-63
2022/12/20 13:05:07;;;;;;;8.23;3.08;;;;;;;-9.29;73.19;99973.13;4836201;28;20057;-64
2022/12/20 13:07:55;;;;;;;11.05;3.20;;;;;;;-9.30;73.04;99981.50;4863917;28;20041;-64
2022/12/20 13:11:07;;;;;;;6.53;2.53;;;;;;;-9.29;73.14;99978.19;4881189;28;20064;-65
2022/12/20 13:16:44;;;;;;;9.57;3.22;;;;;;;-9.33;73.54;99981.34;4835621;28;20112;-63
2022/12/20 13:19:39;;;;;;;12.00;3.45;;;;;;;-9.35;73.27;99993.03;4847136;28;20374;-63
2022/12/20 13:22:28;;;;;;;6.07;2.83;;;;;;;-9.31;73.59;99994.94;4855770;28;20339;-64
2022/12/20 13:25:51;;;;;;;5.70;2.85;;;;;;;-9.34;74.04;99975.38;4857491;28;20042;-63
2022/12/20 13:28:56;;;;;;;11.27;3.30;;;;;;;-9.40;74.03;99979.25;4832783;28;20043;-64
2022/12/20 13:31:37;;;;;;;4.10;3.03;;;;;;;-9.48;73.88;99980.41;4868943;28;20094;-63
2022/12/20 13:34:59;;;;;;;7.22;3.22;;;;;;;-9.36;74.86;99976.09;4875292;28;20053;-63
2022/12/20 13:38:00;;;;;;;7.03;2.42;;;;;;;-9.30;75.50;99956.22;4855763;28;20098;-64
2022/12/20 13:40:54;;;;;;;4.80;2.70;;;;;;;-9.09;75.56;99975.94;4884691;28;20043;-63
2022/12/20 13:43:47;;;;;;;4.68;2.75;;;;;;;-8.95;75.13;99975.94;4915592;28;20049;-64
2022/12/20 13:46:50;;;;;;;9.30;2.67;;;;;;;-8.96;74.24;99978.38;4892212;28;20316;-65
2022/12/20 13:49:46;;;;;;;6.82;3.05;;;;;;;-8.99;73.51;99974.00;4847065;28;20353;-64
2022/12/20 13:52:47;;;;;;;10.00;3.67;;;;;;;-9.02;72.37;99970.44;4913051;28;20059;-62
2022/12/20 13:55:49;;;;;;;8.20;3.55;;;;;;;-8.97;71.92;99966.50;4866208;28;20109;-62
2022/12/20 13:58:41;;;;;;;4.88;2.83;;;;;;;-9.19;71.44;99934.91;4863363;28;20504;-63
2022/12/20 14:01:18;;;;;;;7.85;3.63;;;;;;;-8.95;70.52;99970.00;4865280;28;20094;-63
2022/12/20 14:04:21;;;;;;;13.00;5.88;;;;;;;-8.98;70.29;99974.91;4870144;28;20053;-63
2022/12/20 14:07:24;;;;;;;8.50;3.53;;;;;;;-8.90;70.79;99966.94;4893859;28;20050;-64
2022/12/20 14:10:19;;;;;;;9.95;3.17;;;;;;;-8.75;72.02;99969.44;4850760;28;20583;-63
2022/12/20 14:13:03;;;;;;;9.25;3.88;;;;;;;-8.82;70.98;99967.34;4889325;28;20073;-64
2022/12/20 14:15:55;;;;;;;12.02;3.88;;;;;;;-9.07;70.22;99938.94;4875040;28;20045;-63
2022/12/20 14:18:35;;;;;;;7.15;3.03;;;;;;;-8.99;70.16;99973.13;4880913;28;20113;-65
2022/12/20 14:21:22;;;;;;;11.70;3.88;;;;;;;-8.95;70.53;99965.81;4896284;28;20040;-65
2022/12/20 14:24:22;;;;;;;6.25;3.40;;;;;;;-8.87;70.36;99957.78;4902587;28;20946;-65
2022/12/20 14:27:26;;;;;;;7.30;3.47;;;;;;;-8.88;70.34;99956.91;4905611;28;20057;-63
2022/12/20 14:30:56;;;;;;;10.15;3.40;;;;;;;-8.93;70.58;99958.31;4891157;28;20209;-62
2022/12/20 14:33:36;;;;;;;7.00;3.00;;;;;;;-9.28;70.12;99898.97;4896776;28;20312;-64
2022/12/20 14:36:34;;;;;;;9.40;2.80;;;;;;;-8.88;70.08;99941.72;4874442;28;20045;-63
2022/12/20 14:42:14;;;;;;;12.60;4.07;;;;;;;-8.82;69.49;99944.56;4965280;27;20388;-79
2022/12/20 14:44:45;;;;;;;8.00;3.33;;;;;;;-8.82;69.35;99936.97;4957264;28;20040;-79
2022/12/20 14:47:20;;;;;;;8.60;3.47;;;;;;;-8.72;69.73;99949.34;4966044;28;20062;-78
2022/12/20 14:49:54;;;;;;;12.93;3.10;;;;;;;-8.93;69.34;99938.06;4956996;28;20168;-79
2022/12/20 14:52:33;;;;;;;6.55;3.10;;;;;;;-9.04;68.95;99939.09;4966952;28;20073;-79
2022/12/20 14:55:07;;;;;;;9.02;3.10;;;;;;;-8.99;69.16;99943.63;4956629;28;20039;-78
2022/12/20 14:57:47;;;;;;;6.97;3.40;;;;;;;-9.09;68.81;99955.69;4956627;28;20047;-80
2022/12/20 15:00:24;;;;;;;8.60;3.80;;;;;;;-9.16;69.10;99950.28;4962636;28;20039;-79
2022/12/20 15:03:01;;;;;;;10.43;4.03;;;;;;;-9.32;69.59;99937.53;4967100;28;20048;-79
2022/12/20 15:05:47;;;;;;;7.80;2.95;;;;;;;-9.32;70.01;99914.75;4957027;28;20051;-80
2022/12/20 15:08:21;;;;;;;7.63;3.63;;;;;;;-9.07;70.25;99956.66;4952534;28;20075;-79
2022/12/20 15:11:02;;;;;;;6.95;2.70;;;;;;;-9.41;70.36;99884.78;4966732;28;20044;-79
2022/12/20 15:13:36;;;;;;;10.95;3.03;;;;;;;-9.06;69.70;99948.25;4955926;28;20042;-80
2022/12/20 15:16:15;;;;;;;12.90;2.92;;;;;;;-9.22;70.29;99911.97;4964285;28;20055;-80
2022/12/20 15:18:47;;;;;;;5.82;2.83;;;;;;;-8.96;70.34;99963.16;4966656;28;20035;-80
2022/12/20 15:21:23;;;;;;;9.88;3.47;;;;;;;-9.68;70.26;99873.94;4964380;28;20048;-80
2022/12/20 15:23:55;;;;;;;8.88;3.10;;;;;;;-9.63;70.34;99884.31;4966416;28;20277;-79
2022/12/20 15:26:27;;;;;;;10.48;4.00;;;;;;;-9.14;70.52;99943.63;4966471;28;20050;-80